Time;durP1;ratioP1;P1;durP2;ratioP2;P2;SDS_P1;SDS_P2;PMS_P1;PMS_P2;Temp;Humidity;BMP_temperature;BMP_pressure;BME280_temperature;BME280_humidity;BME280_pressure;Samples;Min_cycle;Max_cycle;Signal;HPM_P1;HPM_P2
2021/04/08 00:01:26;;;;;;;7.30;1.92;;;15.50;94.20;;;;;;5071713;28;20029;-62
2021/04/08 00:03:52;;;;;;;6.03;2.10;;;15.50;94.20;;;;;;5071857;28;20036;-62
2021/04/08 00:06:18;;;;;;;4.45;2.17;;;15.50;93.90;;;;;;5070506;28;20020;-63
2021/04/08 00:08:43;;;;;;;4.95;2.00;;;15.50;94.20;;;;;;5071088;28;20127;-61
2021/04/08 00:11:09;;;;;;;5.18;1.90;;;15.40;94.20;;;;;;5072090;28;20098;-61
2021/04/08 00:13:35;;;;;;;4.47;2.00;;;15.50;94.30;;;;;;5071396;28;20380;-61
2021/04/08 00:16:01;;;;;;;5.47;2.25;;;15.40;94.30;;;;;;5094137;28;20020;-61
2021/04/08 00:18:27;;;;;;;5.47;2.30;;;15.40;94.20;;;;;;5071365;28;20099;-62
2021/04/08 00:20:53;;;;;;;4.28;2.10;;;15.40;94.10;;;;;;5071506;28;20052;-60
2021/04/08 00:23:18;;;;;;;5.55;2.13;;;15.40;94.20;;;;;;5071637;28;20055;-60
2021/04/08 00:25:44;;;;;;;5.45;2.10;;;15.40;94.60;;;;;;5071557;28;20017;-61
2021/04/08 00:28:10;;;;;;;4.32;1.90;;;15.40;94.30;;;;;;5070831;28;20032;-61
2021/04/08 00:30:42;;;;;;;6.10;2.15;;;15.40;94.60;;;;;;5071613;28;20056;-62
2021/04/08 00:33:13;;;;;;;6.18;2.40;;;15.40;94.70;;;;;;5072055;28;20024;-61
2021/04/08 00:35:39;;;;;;;4.15;2.25;;;15.40;94.40;;;;;;5071692;28;20052;-60
2021/04/08 00:38:05;;;;;;;4.53;2.05;;;15.40;94.70;;;;;;5070338;28;20035;-61
2021/04/08 00:40:31;;;;;;;4.28;2.25;;;15.30;94.90;;;;;;5071090;28;20476;-60
2021/04/08 00:42:57;;;;;;;3.70;1.80;;;15.40;94.40;;;;;;5071444;28;20059;-61
2021/04/08 00:45:23;;;;;;;3.92;2.10;;;15.30;94.80;;;;;;5070633;28;20060;-60
2021/04/08 00:47:48;;;;;;;5.00;2.33;;;15.40;95.20;;;;;;5071428;28;20130;-61
2021/04/08 00:50:15;;;;;;;5.60;2.47;;;15.40;95.00;;;;;;5071258;28;20068;-61
2021/04/08 00:52:53;;;;;;;7.55;2.53;;;15.30;95.10;;;;;;5071149;28;20116;-60
2021/04/08 00:55:21;;;;;;;7.85;2.22;;;15.30;95.40;;;;;;5070462;28;20033;-61
2021/04/08 00:57:47;;;;;;;6.03;2.33;;;15.40;96.70;;;;;;5073382;28;20025;-60
2021/04/08 01:00:14;;;;;;;4.93;2.28;;;15.30;96.40;;;;;;5075087;28;20078;-60
2021/04/08 01:02:39;;;;;;;5.65;2.40;;;15.30;96.50;;;;;;5075037;28;20032;-61
2021/04/08 01:05:06;;;;;;;4.93;2.13;;;15.30;96.30;;;;;;5074654;28;20036;-60
2021/04/08 01:07:33;;;;;;;8.52;2.60;;;15.30;96.60;;;;;;5074493;28;20042;-62
2021/04/08 01:10:00;;;;;;;6.75;2.28;;;15.30;96.70;;;;;;5074615;28;20099;-61
2021/04/08 01:12:26;;;;;;;4.15;2.42;;;15.30;96.70;;;;;;5090372;28;20035;-61
2021/04/08 01:14:51;;;;;;;5.72;2.60;;;15.30;97.20;;;;;;5074335;28;20116;-61
2021/04/08 01:17:38;;;;;;;4.22;2.30;;;15.30;96.50;;;;;;5074885;28;20469;-61
2021/04/08 01:20:19;;;;;;;5.05;2.40;;;15.30;96.50;;;;;;5074387;28;20090;-62
2021/04/08 01:22:53;;;;;;;6.55;2.65;;;15.30;96.40;;;;;;5074735;28;20020;-61
2021/04/08 01:25:37;;;;;;;3.88;2.00;;;15.30;96.70;;;;;;5089487;28;20032;-60
2021/04/08 01:28:27;;;;;;;5.38;2.20;;;15.30;96.60;;;;;;5074566;28;20037;-61
2021/04/08 01:30:58;;;;;;;5.03;2.45;;;15.20;96.50;;;;;;5074454;28;20036;-61
2021/04/08 01:33:31;;;;;;;5.53;2.13;;;15.20;96.30;;;;;;5106983;28;20032;-62
2021/04/08 01:36:01;;;;;;;6.40;2.50;;;15.20;96.20;;;;;;5074205;28;20059;-61
2021/04/08 01:38:53;;;;;;;6.78;2.30;;;15.20;96.40;;;;;;5074478;28;20453;-61
2021/04/08 01:41:22;;;;;;;5.85;2.20;;;15.20;96.40;;;;;;5053979;28;20047;-61
2021/04/08 01:43:50;;;;;;;6.75;2.15;;;15.20;96.40;;;;;;5073563;28;20527;-61
2021/04/08 01:46:19;;;;;;;5.47;2.70;;;15.20;96.40;;;;;;5074540;28;20017;-61
2021/04/08 01:48:48;;;;;;;5.00;2.50;;;15.20;96.40;;;;;;5073718;28;20387;-61
2021/04/08 01:51:14;;;;;;;5.65;2.40;;;15.20;96.30;;;;;;5074301;28;20118;-61
2021/04/08 01:53:46;;;;;;;4.22;2.63;;;15.20;96.50;;;;;;5073608;28;20020;-61
2021/04/08 01:56:16;;;;;;;6.13;2.28;;;15.20;96.20;;;;;;5073352;28;20050;-61
2021/04/08 01:58:43;;;;;;;5.72;2.35;;;15.20;96.20;;;;;;5074222;28;20034;-62
2021/04/08 02:01:09;;;;;;;8.20;2.40;;;15.20;96.30;;;;;;5073710;28;20028;-61
2021/04/08 02:03:36;;;;;;;4.43;2.65;;;15.20;96.60;;;;;;5089367;28;20033;-61
2021/04/08 02:06:05;;;;;;;7.38;2.70;;;15.20;97.00;;;;;;5053877;28;20123;-63
2021/04/08 02:08:32;;;;;;;6.07;2.22;;;15.20;96.90;;;;;;5053034;28;20044;-61
2021/04/08 02:10:59;;;;;;;3.47;1.88;;;15.20;96.50;;;;;;5073547;28;20419;-61
2021/04/08 02:13:26;;;;;;;5.22;2.05;;;15.10;96.70;;;;;;5073002;28;20059;-61
2021/04/08 02:15:52;;;;;;;5.13;2.40;;;15.10;97.00;;;;;;5073306;28;20468;-60
2021/04/08 02:18:20;;;;;;;5.57;1.95;;;15.10;96.90;;;;;;5073962;28;20338;-61
2021/04/08 02:20:49;;;;;;;4.90;2.38;;;15.10;97.50;;;;;;5073591;28;20066;-62
2021/04/08 02:23:25;;;;;;;7.13;2.50;;;15.10;97.10;;;;;;5073910;28;20032;-62
2021/04/08 02:25:53;;;;;;;4.75;2.35;;;15.00;97.20;;;;;;5073622;28;20032;-61
2021/04/08 02:28:19;;;;;;;3.38;2.08;;;15.10;97.20;;;;;;5073669;28;20032;-62
2021/04/08 02:30:48;;;;;;;5.15;2.58;;;15.00;96.70;;;;;;5073153;28;20052;-61
2021/04/08 02:33:22;;;;;;;5.03;2.20;;;15.00;97.00;;;;;;5073246;28;20034;-62
2021/04/08 02:35:49;;;;;;;3.28;2.33;;;15.00;97.10;;;;;;5073447;28;20380;-61
2021/04/08 02:38:16;;;;;;;5.80;2.20;;;15.00;96.90;;;;;;5073517;28;20021;-61
2021/04/08 02:40:42;;;;;;;3.75;2.00;;;15.10;97.10;;;;;;5073100;28;20492;-61
2021/04/08 02:43:12;;;;;;;5.05;2.20;;;15.00;96.90;;;;;;5072847;28;20021;-61
2021/04/08 02:45:39;;;;;;;3.42;2.13;;;15.00;97.20;;;;;;5072616;28;20021;-61
2021/04/08 02:48:09;;;;;;;6.50;2.10;;;15.00;96.90;;;;;;5072992;28;20068;-61
2021/04/08 02:50:35;;;;;;;6.35;2.10;;;15.00;96.80;;;;;;5072847;28;20514;-62
2021/04/08 02:53:08;;;;;;;3.80;2.08;;;14.90;97.20;;;;;;5071777;28;20090;-62
2021/04/08 02:55:49;;;;;;;6.77;2.33;;;14.90;96.70;;;;;;5071541;28;20473;-61
2021/04/08 02:58:17;;;;;;;7.03;2.20;;;14.90;97.10;;;;;;5072673;28;20455;-62
2021/04/08 03:00:52;;;;;;;4.82;2.13;;;14.90;96.60;;;;;;5072060;28;20025;-60
2021/04/08 03:03:22;;;;;;;6.93;2.25;;;14.90;96.60;;;;;;5073025;28;20051;-60
2021/04/08 03:05:48;;;;;;;5.70;2.53;;;14.90;96.90;;;;;;5072736;28;20025;-60
2021/04/08 03:08:18;;;;;;;6.43;2.40;;;14.90;97.00;;;;;;5071073;28;20047;-60
2021/04/08 03:10:45;;;;;;;3.65;1.92;;;14.90;96.90;;;;;;5072036;28;20025;-60
2021/04/08 03:13:12;;;;;;;3.72;2.13;;;14.90;96.70;;;;;;5072250;28;20408;-60
2021/04/08 03:15:39;;;;;;;3.90;2.20;;;14.90;96.70;;;;;;5072126;28;20044;-60
2021/04/08 03:18:16;;;;;;;5.07;2.20;;;14.90;96.50;;;;;;5072186;28;20435;-60
2021/04/08 03:20:48;;;;;;;3.78;2.10;;;14.80;96.60;;;;;;5071562;28;20025;-60
2021/04/08 03:23:15;;;;;;;5.80;2.05;;;14.80;96.50;;;;;;5072114;28;20036;-60
2021/04/08 03:25:41;;;;;;;6.40;2.08;;;14.80;96.50;;;;;;5072076;28;20024;-61
2021/04/08 03:28:11;;;;;;;3.78;2.10;;;14.80;96.30;;;;;;5071912;28;20471;-60
2021/04/08 03:30:40;;;;;;;3.33;2.05;;;14.80;96.50;;;;;;5072238;28;20107;-60
2021/04/08 03:33:06;;;;;;;3.05;1.70;;;14.80;96.20;;;;;;5071604;28;20124;-60
2021/04/08 03:35:33;;;;;;;2.60;1.92;;;14.80;96.30;;;;;;5071932;28;20111;-60
2021/04/08 03:38:00;;;;;;;4.40;2.40;;;14.80;96.10;;;;;;5071951;28;20056;-61
2021/04/08 03:40:25;;;;;;;4.35;2.22;;;14.80;96.00;;;;;;5071632;28;20480;-62
2021/04/08 03:42:52;;;;;;;4.45;2.17;;;14.80;96.10;;;;;;5072119;28;20070;-60
2021/04/08 03:45:18;;;;;;;4.32;2.40;;;14.80;96.10;;;;;;5072073;28;20067;-60
2021/04/08 03:47:45;;;;;;;3.95;1.90;;;14.70;96.00;;;;;;5071623;28;20445;-59
2021/04/08 03:50:13;;;;;;;4.65;2.47;;;14.80;96.70;;;;;;5071436;28;20077;-60
2021/04/08 03:52:40;;;;;;;4.40;2.10;;;14.70;96.40;;;;;;5071945;28;20029;-60
2021/04/08 03:55:08;;;;;;;4.22;2.30;;;14.70;96.30;;;;;;5071568;28;20021;-60
2021/04/08 03:57:35;;;;;;;3.03;1.90;;;14.70;96.40;;;;;;5071598;28;20031;-61
2021/04/08 04:00:06;;;;;;;4.10;1.83;;;14.70;96.20;;;;;;5071537;28;20041;-60
2021/04/08 04:02:33;;;;;;;5.75;2.13;;;14.70;96.30;;;;;;5071520;28;20063;-61
2021/04/08 04:05:00;;;;;;;4.22;2.20;;;14.70;96.10;;;;;;5051620;28;20025;-61
2021/04/08 04:07:26;;;;;;;4.30;2.13;;;14.70;96.20;;;;;;5051723;28;20025;-61
2021/04/08 04:09:52;;;;;;;3.08;1.95;;;14.70;96.40;;;;;;5078413;28;20058;-60
2021/04/08 04:12:18;;;;;;;3.35;2.20;;;14.70;96.20;;;;;;5071610;28;20033;-60
2021/04/08 04:14:45;;;;;;;3.58;2.10;;;14.60;96.40;;;;;;5070875;28;20033;-60
2021/04/08 04:17:37;;;;;;;3.70;1.90;;;14.70;96.30;;;;;;5071643;28;20124;-61
2021/04/08 04:20:06;;;;;;;4.78;2.20;;;14.60;96.50;;;;;;5069600;28;20039;-61
2021/04/08 04:22:37;;;;;;;7.55;2.47;;;14.70;96.90;;;;;;5070145;28;20036;-60
2021/04/08 04:25:08;;;;;;;7.68;2.22;;;14.70;96.40;;;;;;5071577;28;20431;-60
2021/04/08 04:27:33;;;;;;;6.57;2.10;;;14.60;96.30;;;;;;5070862;28;20380;-60
2021/04/08 04:29:59;;;;;;;6.95;2.35;;;14.60;96.20;;;;;;5070956;28;20031;-61
2021/04/08 04:32:25;;;;;;;7.00;2.42;;;14.60;96.40;;;;;;5073385;28;20052;-61
2021/04/08 04:34:51;;;;;;;3.97;2.10;;;14.60;95.80;;;;;;5075758;28;20103;-62
2021/04/08 04:37:16;;;;;;;8.13;2.00;;;14.60;96.10;;;;;;5075402;28;20031;-59
2021/04/08 04:39:44;;;;;;;6.53;2.10;;;14.50;95.90;;;;;;5075153;28;20510;-61
2021/04/08 04:42:10;;;;;;;4.93;1.95;;;14.50;95.60;;;;;;5075007;28;20056;-60
2021/04/08 04:44:38;;;;;;;4.70;1.90;;;14.50;95.70;;;;;;5073496;28;20035;-60
2021/04/08 04:47:03;;;;;;;6.38;2.10;;;14.50;95.80;;;;;;5075352;28;20027;-60
2021/04/08 04:49:29;;;;;;;4.15;2.15;;;14.50;95.60;;;;;;5075254;28;20024;-62
2021/04/08 04:51:55;;;;;;;6.55;2.22;;;14.50;95.60;;;;;;5075304;28;20531;-61
2021/04/08 04:54:21;;;;;;;3.80;2.10;;;14.50;95.80;;;;;;5075211;28;20035;-61
2021/04/08 04:56:47;;;;;;;4.78;2.40;;;14.50;95.40;;;;;;5074973;28;20129;-62
2021/04/08 04:59:12;;;;;;;4.78;2.00;;;14.40;95.70;;;;;;5074623;28;20032;-61
2021/04/08 05:01:38;;;;;;;9.07;2.22;;;14.50;95.60;;;;;;5073398;28;20032;-61
2021/04/08 05:04:04;;;;;;;5.43;2.20;;;14.50;95.50;;;;;;5074401;28;20020;-61
2021/04/08 05:06:29;;;;;;;7.57;2.20;;;14.50;95.60;;;;;;5074857;28;20036;-61
2021/04/08 05:08:55;;;;;;;4.00;1.77;;;14.50;95.60;;;;;;5074722;28;20115;-61
2021/04/08 05:11:20;;;;;;;5.22;1.80;;;14.40;95.50;;;;;;5074296;28;20027;-61
2021/04/08 05:13:46;;;;;;;5.78;1.90;;;14.50;95.70;;;;;;5074001;28;20492;-61
2021/04/08 05:16:12;;;;;;;4.57;2.03;;;14.40;95.40;;;;;;5074925;28;20461;-61
2021/04/08 05:18:37;;;;;;;6.38;2.15;;;14.50;95.50;;;;;;5074074;28;20063;-61
2021/04/08 05:21:03;;;;;;;3.22;1.90;;;14.50;95.50;;;;;;5074840;28;20048;-61
2021/04/08 05:23:29;;;;;;;4.07;2.08;;;14.40;95.50;;;;;;5074831;28;20404;-60
2021/04/08 05:25:55;;;;;;;9.88;2.30;;;14.40;95.60;;;;;;5075076;28;20046;-61
2021/04/08 05:28:20;;;;;;;6.22;2.13;;;14.40;95.50;;;;;;5088668;28;20032;-61
2021/04/08 05:30:46;;;;;;;3.33;1.90;;;14.40;95.50;;;;;;5074141;28;20025;-61
2021/04/08 05:33:12;;;;;;;4.15;1.92;;;14.40;95.70;;;;;;5074746;28;20055;-61
2021/04/08 05:35:38;;;;;;;6.15;2.30;;;14.40;95.40;;;;;;5099975;28;20017;-61
2021/04/08 05:38:03;;;;;;;8.23;2.22;;;14.40;95.50;;;;;;5074234;28;20107;-60
2021/04/08 05:40:29;;;;;;;5.40;2.15;;;14.40;95.80;;;;;;5074688;28;20445;-60
2021/04/08 05:42:55;;;;;;;6.10;1.90;;;14.40;95.70;;;;;;5073505;28;20032;-61
2021/04/08 05:45:21;;;;;;;3.67;1.80;;;14.40;95.70;;;;;;5072480;28;20103;-60
2021/04/08 05:47:48;;;;;;;4.85;1.73;;;14.40;95.40;;;;;;5073859;28;20515;-60
2021/04/08 05:50:15;;;;;;;7.20;2.63;;;14.40;96.10;;;;;;5073337;28;20536;-61
2021/04/08 05:52:40;;;;;;;4.65;1.95;;;14.40;95.00;;;;;;5074148;28;20117;-60
2021/04/08 05:55:08;;;;;;;14.07;2.45;;;14.30;93.60;;;;;;5073410;28;20058;-61
2021/04/08 05:57:34;;;;;;;5.53;1.90;;;14.30;93.30;;;;;;5071489;28;20017;-60
2021/04/08 06:00:00;;;;;;;7.38;1.70;;;14.30;92.30;;;;;;5062475;28;20028;-60
2021/04/08 06:02:25;;;;;;;3.42;2.30;;;14.30;90.90;;;;;;5054332;28;20021;-60
2021/04/08 06:04:51;;;;;;;8.95;3.22;;;14.20;90.00;;;;;;5061673;28;20063;-60
2021/04/08 06:07:17;;;;;;;10.95;3.85;;;13.80;88.60;;;;;;5073922;28;20026;-60
2021/04/08 06:09:42;;;;;;;6.82;3.67;;;13.50;87.10;;;;;;5073854;28;20044;-61
2021/04/08 06:12:09;;;;;;;8.60;3.47;;;13.20;87.40;;;;;;5073819;28;20032;-61
2021/04/08 06:14:36;;;;;;;8.30;3.95;;;13.10;86.30;;;;;;5073908;28;20042;-60
2021/04/08 06:17:02;;;;;;;8.70;3.72;;;13.00;85.90;;;;;;5072678;28;20423;-60
2021/04/08 06:19:27;;;;;;;13.63;3.50;;;13.20;88.40;;;;;;5064806;28;20029;-60
2021/04/08 06:21:53;;;;;;;8.48;2.90;;;13.50;89.60;;;;;;5055236;28;20021;-61
2021/04/08 06:24:19;;;;;;;10.73;3.10;;;13.50;89.60;;;;;;5053824;28;20495;-60
2021/04/08 06:26:45;;;;;;;8.43;3.40;;;13.70;90.00;;;;;;5053544;28;20491;-60
2021/04/08 06:29:11;;;;;;;6.40;2.92;;;13.60;89.80;;;;;;5053476;28;20069;-62
2021/04/08 06:31:36;;;;;;;7.20;2.58;;;13.70;89.40;;;;;;5062766;28;20082;-61
2021/04/08 06:34:02;;;;;;;9.13;2.97;;;13.60;89.80;;;;;;5058746;28;20032;-61
2021/04/08 06:36:27;;;;;;;6.80;2.17;;;13.70;89.30;;;;;;5069213;28;20025;-61
2021/04/08 06:38:53;;;;;;;6.43;2.88;;;13.70;88.90;;;;;;5073455;28;20032;-59
2021/04/08 06:41:19;;;;;;;7.05;2.22;;;13.70;88.90;;;;;;5073317;28;20024;-62
2021/04/08 06:43:46;;;;;;;4.20;2.47;;;13.70;89.20;;;;;;5073282;28;20472;-61
2021/04/08 06:46:16;;;;;;;6.90;2.53;;;13.60;89.10;;;;;;5073412;28;20032;-59
2021/04/08 06:48:47;;;;;;;3.90;2.50;;;13.70;89.40;;;;;;5072961;28;20036;-59
2021/04/08 06:51:20;;;;;;;6.88;2.40;;;13.70;90.10;;;;;;5071963;28;20078;-57
2021/04/08 06:53:47;;;;;;;5.38;2.60;;;13.70;89.60;;;;;;5073002;28;20028;-59
2021/04/08 06:56:13;;;;;;;4.90;2.20;;;13.70;90.00;;;;;;5072183;28;20032;-59
2021/04/08 06:58:40;;;;;;;5.75;2.20;;;13.70;89.70;;;;;;5070582;28;20028;-60
2021/04/08 07:01:10;;;;;;;5.10;2.25;;;13.70;90.00;;;;;;5068803;28;20021;-59
2021/04/08 07:03:38;;;;;;;4.10;2.30;;;13.70;89.50;;;;;;5072509;28;20039;-60
2021/04/08 07:06:04;;;;;;;4.88;2.20;;;13.70;89.60;;;;;;5064283;28;20044;-61
2021/04/08 07:08:31;;;;;;;3.55;2.20;;;13.80;91.00;;;;;;5065259;28;20033;-60
2021/04/08 07:10:57;;;;;;;6.75;2.10;;;14.70;90.20;;;;;;5070990;28;20408;-62
2021/04/08 07:13:27;;;;;;;4.40;2.03;;;15.90;88.10;;;;;;5065993;28;20025;-63
2021/04/08 07:15:54;;;;;;;7.82;2.10;;;16.90;86.60;;;;;;5069201;28;20067;-62
2021/04/08 07:18:25;;;;;;;6.82;2.03;;;17.60;84.50;;;;;;5067737;28;20032;-63
2021/04/08 07:20:55;;;;;;;3.55;1.40;;;18.10;83.60;;;;;;5065921;28;20127;-57
2021/04/08 07:23:22;;;;;;;4.82;1.70;;;18.60;82.70;;;;;;5050480;28;20550;-58
2021/04/08 07:25:59;;;;;;;5.53;1.80;;;18.90;82.60;;;;;;5052397;28;20033;-58
2021/04/08 07:28:33;;;;;;;5.45;1.92;;;19.10;80.70;;;;;;5052145;28;20041;-61
2021/04/08 07:31:28;;;;;;;3.28;1.67;;;19.40;79.60;;;;;;5052423;28;20025;-61
2021/04/08 07:33:54;;;;;;;;;;;19.50;79.20;;;;;;5072009;28;20050;-59
2021/04/08 07:36:34;;;;;;;4.38;1.58;;;19.90;79.10;;;;;;5066383;28;19914;-62
2021/04/08 07:39:05;;;;;;;5.35;1.73;;;20.20;78.70;;;;;;5072057;28;20025;-61
2021/04/08 07:41:36;;;;;;;3.40;1.60;;;20.60;78.60;;;;;;5067519;28;20021;-61
2021/04/08 07:44:05;;;;;;;3.00;1.35;;;20.80;78.30;;;;;;5061730;28;20031;-59
2021/04/08 07:46:45;;;;;;;3.42;1.63;;;21.00;78.20;;;;;;5071812;28;20021;-59
2021/04/08 07:49:27;;;;;;;4.53;1.60;;;21.30;78.10;;;;;;5072249;28;20040;-64
2021/04/08 07:51:53;;;;;;;3.53;1.67;;;21.50;78.00;;;;;;5072335;28;20138;-68
2021/04/08 07:54:19;;;;;;;3.15;1.80;;;21.80;77.90;;;;;;5067521;28;20438;-68
2021/04/08 07:56:45;;;;;;;5.13;1.45;;;22.00;77.90;;;;;;5072107;28;20035;-59
2021/04/08 07:59:18;;;;;;;4.03;1.50;;;22.30;78.00;;;;;;5065017;28;20028;-59
2021/04/08 08:01:45;;;;;;;2.53;1.33;;;22.50;78.10;;;;;;5053886;28;20029;-60
2021/04/08 08:04:25;;;;;;;3.10;1.48;;;22.70;78.20;;;;;;5069102;28;20036;-59
2021/04/08 08:06:51;;;;;;;3.33;1.50;;;22.90;78.10;;;;;;5091478;28;20523;-60
2021/04/08 08:09:28;;;;;;;3.40;1.27;;;23.10;78.00;;;;;;5051979;28;20036;-66
2021/04/08 08:11:56;;;;;;;3.22;1.30;;;23.30;78.20;;;;;;5052055;28;20052;-67
2021/04/08 08:14:40;;;;;;;3.17;1.20;;;23.50;78.20;;;;;;5052511;28;20495;-65
2021/04/08 08:17:09;;;;;;;3.17;1.25;;;23.70;78.30;;;;;;5052098;28;20025;-68
2021/04/08 08:19:43;;;;;;;2.65;1.40;;;23.80;78.30;;;;;;5052145;28;20028;-69
2021/04/08 08:22:19;;;;;;;4.20;1.30;;;24.00;78.20;;;;;;5051833;28;20028;-60
2021/04/08 08:24:55;;;;;;;2.90;1.30;;;24.20;78.30;;;;;;5051893;28;20044;-60
2021/04/08 08:27:37;;;;;;;1.80;0.95;;;24.40;78.30;;;;;;5051743;28;20144;-61
2021/04/08 08:30:03;;;;;;;3.08;1.15;;;24.60;78.50;;;;;;5051913;28;20412;-60
2021/04/08 08:32:29;;;;;;;2.25;1.30;;;24.80;78.50;;;;;;5052149;28;20047;-60
2021/04/08 08:34:55;;;;;;;3.38;1.10;;;24.20;81.40;;;;;;5050272;28;20509;-59
2021/04/08 08:37:21;;;;;;;3.45;1.33;;;23.50;81.80;;;;;;5051687;28;20074;-59
2021/04/08 08:39:48;;;;;;;4.00;1.30;;;24.00;81.50;;;;;;5051485;28;20033;-61
2021/04/08 08:42:18;;;;;;;6.03;1.30;;;24.40;80.80;;;;;;5051446;28;20584;-62
2021/04/08 08:44:44;;;;;;;4.72;1.50;;;23.40;81.80;;;;;;5051680;28;20392;-59
2021/04/08 08:47:15;;;;;;;4.97;1.85;;;22.40;82.10;;;;;;5051486;28;20025;-59
2021/04/08 08:49:57;;;;;;;3.85;1.60;;;21.70;83.00;;;;;;5051919;28;20029;-59
2021/04/08 08:52:35;;;;;;;3.08;1.73;;;21.20;84.40;;;;;;5051396;28;20472;-61
2021/04/08 08:55:23;;;;;;;2.88;1.50;;;20.80;83.40;;;;;;5051600;28;20037;-59
2021/04/08 08:57:53;;;;;;;4.72;1.63;;;20.50;82.00;;;;;;5051168;28;20116;-61
2021/04/08 09:00:21;;;;;;;2.83;1.77;;;20.30;83.00;;;;;;5051350;28;20056;-61
2021/04/08 09:02:48;;;;;;;4.65;1.83;;;20.30;83.90;;;;;;5051506;28;20017;-59
2021/04/08 09:05:18;;;;;;;4.65;2.15;;;20.20;84.40;;;;;;5050308;28;20029;-60
2021/04/08 09:07:51;;;;;;;5.00;1.77;;;20.20;84.80;;;;;;5069889;28;20600;-61
2021/04/08 09:10:28;;;;;;;4.53;1.63;;;20.20;85.20;;;;;;5071514;28;20047;-60
2021/04/08 09:12:55;;;;;;;4.35;1.90;;;20.10;84.80;;;;;;5066197;28;20029;-61
2021/04/08 09:15:21;;;;;;;5.80;1.80;;;20.00;83.90;;;;;;5050908;28;20025;-60
2021/04/08 09:17:54;;;;;;;2.83;1.75;;;20.20;82.90;;;;;;5052001;28;20017;-63
2021/04/08 09:20:21;;;;;;;3.80;1.60;;;20.20;81.10;;;;;;5066800;28;20039;-60
2021/04/08 09:23:03;;;;;;;4.00;2.10;;;20.00;81.20;;;;;;5071529;28;20141;-71
2021/04/08 09:25:54;;;;;;;3.58;2.08;;;19.70;80.50;;;;;;5074636;28;20028;-73
2021/04/08 09:28:20;;;;;;;4.75;2.03;;;19.60;81.70;;;;;;5069730;28;20044;-64
2021/04/08 09:30:56;;;;;;;2.42;1.73;;;19.60;83.80;;;;;;5074787;28;20029;-72
2021/04/08 09:33:40;;;;;;;4.22;2.05;;;19.60;83.90;;;;;;5057125;28;20102;-60
2021/04/08 09:36:21;;;;;;;4.15;1.58;;;19.90;82.50;;;;;;5054537;28;20021;-61
2021/04/08 09:38:51;;;;;;;2.83;1.63;;;20.00;83.00;;;;;;5054740;28;20025;-61
2021/04/08 09:41:18;;;;;;;4.20;1.65;;;19.90;83.10;;;;;;5054776;28;20025;-62
2021/04/08 09:43:46;;;;;;;2.30;1.60;;;19.80;83.90;;;;;;5054663;28;20029;-60
2021/04/08 09:46:13;;;;;;;8.27;1.60;;;19.70;84.10;;;;;;5054867;28;20029;-62
2021/04/08 09:48:47;;;;;;;2.35;1.50;;;19.60;84.90;;;;;;5054548;28;20044;-64
2021/04/08 09:51:38;;;;;;;2.63;1.48;;;19.60;85.60;;;;;;5054235;28;20111;-60
2021/04/08 09:54:14;;;;;;;2.53;1.50;;;19.50;85.60;;;;;;5034503;28;20037;-61
2021/04/08 09:56:56;;;;;;;2.67;1.42;;;19.60;86.00;;;;;;5055011;28;20025;-67
2021/04/08 09:59:24;;;;;;;3.08;1.60;;;19.80;85.70;;;;;;5054919;28;20075;-63
2021/04/08 10:01:51;;;;;;;3.45;1.45;;;19.80;85.50;;;;;;5092618;28;20020;-70
2021/04/08 10:04:21;;;;;;;3.25;1.67;;;19.70;86.40;;;;;;5086880;28;20384;-66
2021/04/08 10:06:58;;;;;;;3.65;1.80;;;19.60;87.90;;;;;;5093701;28;20066;-63
2021/04/08 10:09:24;;;;;;;3.63;1.52;;;19.60;87.30;;;;;;5073209;28;20044;-68
2021/04/08 10:11:49;;;;;;;3.55;1.80;;;19.50;87.40;;;;;;5077055;28;20503;-65
2021/04/08 10:14:27;;;;;;;3.22;1.50;;;19.50;87.60;;;;;;5079349;28;20024;-60
2021/04/08 10:17:02;;;;;;;2.58;1.30;;;19.50;87.20;;;;;;5075092;28;20028;-64
2021/04/08 10:19:30;;;;;;;2.88;1.48;;;19.50;87.60;;;;;;5065014;28;20055;-63
2021/04/08 10:21:55;;;;;;;2.55;1.45;;;19.50;88.30;;;;;;5066342;28;20468;-68
2021/04/08 10:24:21;;;;;;;2.25;1.30;;;19.80;88.20;;;;;;5053710;28;20033;-66
2021/04/08 10:26:46;;;;;;;2.58;1.45;;;19.60;84.40;;;;;;5083162;28;20028;-63
2021/04/08 10:29:12;;;;;;;3.03;1.60;;;19.10;76.20;;;;;;5070047;28;20037;-65
2021/04/08 10:31:43;;;;;;;4.43;1.35;;;18.80;75.70;;;;;;5060235;28;20440;-64
2021/04/08 10:34:14;;;;;;;5.13;1.40;;;18.60;75.70;;;;;;5077685;28;20028;-62
2021/04/08 10:36:55;;;;;;;1.60;1.20;;;18.50;76.40;;;;;;5068629;28;20013;-60
2021/04/08 10:39:44;;;;;;;1.70;1.15;;;18.40;76.60;;;;;;5068631;28;20020;-61
2021/04/08 10:42:12;;;;;;;3.67;1.40;;;18.40;77.70;;;;;;5070237;28;20451;-61
2021/04/08 10:44:51;;;;;;;4.80;1.15;;;18.20;76.50;;;;;;5071889;28;20039;-65
2021/04/08 10:47:24;;;;;;;2.10;1.30;;;18.20;78.00;;;;;;5071739;28;20031;-61
2021/04/08 10:49:51;;;;;;;2.42;1.30;;;18.30;77.80;;;;;;5071821;28;20090;-61
2021/04/08 10:52:22;;;;;;;3.00;1.65;;;18.40;78.10;;;;;;5070936;28;20397;-59
2021/04/08 10:54:55;;;;;;;2.25;1.50;;;18.40;78.30;;;;;;5069921;28;20028;-59
2021/04/08 10:57:22;;;;;;;4.68;1.67;;;18.40;78.70;;;;;;5070838;28;20027;-60
2021/04/08 10:59:50;;;;;;;6.05;3.00;;;18.40;78.80;;;;;;5091066;28;20476;-62
2021/04/08 11:02:29;;;;;;;8.25;3.95;;;18.40;78.70;;;;;;5077346;28;20466;-63
2021/04/08 11:04:56;;;;;;;9.00;4.60;;;18.50;78.80;;;;;;5088069;28;20148;-62
2021/04/08 11:07:23;;;;;;;7.80;4.30;;;18.60;79.10;;;;;;5072692;28;20036;-61
2021/04/08 11:09:50;;;;;;;14.50;5.70;;;18.60;79.10;;;;;;5072934;28;20036;-60
2021/04/08 11:12:15;;;;;;;9.05;4.97;;;18.60;80.60;;;;;;5084367;28;20036;-63
2021/04/08 11:14:48;;;;;;;8.23;4.80;;;18.60;81.50;;;;;;5073076;28;20029;-64
2021/04/08 11:17:15;;;;;;;11.32;5.63;;;18.60;81.40;;;;;;5077417;28;20028;-66
2021/04/08 11:19:42;;;;;;;9.88;5.10;;;18.70;81.80;;;;;;5078810;28;20032;-63
2021/04/08 11:22:13;;;;;;;11.32;6.00;;;18.70;81.90;;;;;;5077906;28;20051;-61
2021/04/08 11:24:39;;;;;;;10.90;5.28;;;18.80;81.50;;;;;;5092860;28;20028;-62
2021/04/08 11:27:05;;;;;;;8.95;5.47;;;18.70;81.40;;;;;;5091216;28;20524;-61
2021/04/08 11:29:31;;;;;;;9.07;5.80;;;18.70;81.40;;;;;;5089952;28;20039;-57
2021/04/08 11:32:10;;;;;;;9.73;5.13;;;18.60;81.80;;;;;;5075200;28;20070;-59
2021/04/08 11:34:43;;;;;;;11.05;5.30;;;18.40;81.80;;;;;;5072089;28;20020;-60
2021/04/08 11:37:09;;;;;;;9.50;5.78;;;18.30;81.90;;;;;;5093477;28;20028;-64
2021/04/08 11:39:36;;;;;;;9.55;5.05;;;18.30;81.70;;;;;;5070377;28;20024;-60
2021/04/08 11:42:23;;;;;;;8.23;4.55;;;18.30;82.00;;;;;;5088748;28;20463;-59
2021/04/08 11:44:51;;;;;;;7.97;4.85;;;18.30;81.90;;;;;;5078381;28;20044;-61
2021/04/08 11:47:22;;;;;;;9.73;5.03;;;18.30;82.40;;;;;;5067577;28;20029;-62
2021/04/08 11:49:53;;;;;;;7.60;4.50;;;18.20;82.80;;;;;;5071489;28;20075;-60
2021/04/08 11:52:26;;;;;;;9.52;4.47;;;18.20;83.40;;;;;;5085715;28;20016;-59
2021/04/08 11:55:18;;;;;;;8.48;4.68;;;18.20;83.00;;;;;;5071573;28;20051;-59
2021/04/08 11:57:54;;;;;;;8.57;4.55;;;18.20;83.80;;;;;;5087705;28;20072;-67
2021/04/08 12:00:28;;;;;;;8.15;4.72;;;18.20;83.90;;;;;;5068511;28;20089;-58
2021/04/08 12:02:54;;;;;;;6.63;3.92;;;18.20;84.40;;;;;;5082470;28;20036;-58
2021/04/08 12:05:20;;;;;;;13.77;3.72;;;18.40;83.90;;;;;;5083515;28;20039;-59
2021/04/08 12:07:48;;;;;;;6.90;3.92;;;18.50;83.80;;;;;;5067771;28;20032;-58
2021/04/08 12:10:25;;;;;;;7.22;3.90;;;18.60;84.20;;;;;;5084065;28;20032;-58
2021/04/08 12:12:58;;;;;;;5.95;3.40;;;18.70;84.20;;;;;;5092181;28;20031;-58
2021/04/08 12:15:35;;;;;;;7.45;4.03;;;18.80;84.30;;;;;;5085118;28;20020;-57
2021/04/08 12:18:09;;;;;;;6.47;3.63;;;18.80;85.00;;;;;;5086865;28;20028;-57
2021/04/08 12:20:35;;;;;;;7.05;3.50;;;18.90;84.20;;;;;;5072774;28;20043;-58
2021/04/08 12:23:13;;;;;;;6.82;3.75;;;18.90;84.50;;;;;;5071649;28;20075;-58
2021/04/08 12:25:43;;;;;;;6.60;3.03;;;19.00;85.50;;;;;;5066762;28;20035;-56
2021/04/08 12:28:09;;;;;;;7.00;3.30;;;19.00;84.60;;;;;;5069286;28;20047;-58
2021/04/08 12:30:35;;;;;;;8.82;3.78;;;18.90;83.10;;;;;;5091863;28;20028;-60
2021/04/08 12:33:00;;;;;;;6.80;3.25;;;18.80;83.90;;;;;;5087088;28;20031;-58
2021/04/08 12:35:26;;;;;;;6.10;3.35;;;18.70;85.10;;;;;;5078736;28;20034;-59
2021/04/08 12:37:52;;;;;;;5.90;3.05;;;18.60;85.50;;;;;;5051693;28;20025;-59
2021/04/08 12:40:17;;;;;;;5.47;2.90;;;18.60;85.40;;;;;;5052490;28;20082;-63
2021/04/08 12:42:44;;;;;;;4.00;2.65;;;18.60;85.40;;;;;;5064715;28;20033;-61
2021/04/08 12:45:10;;;;;;;5.38;2.60;;;18.70;84.90;;;;;;5061616;28;20371;-63
2021/04/08 12:47:36;;;;;;;4.93;2.55;;;18.70;85.20;;;;;;5075379;28;20085;-60
2021/04/08 12:50:03;;;;;;;5.18;2.67;;;18.70;84.70;;;;;;5089585;28;20396;-62
2021/04/08 12:52:28;;;;;;;5.30;2.63;;;18.80;84.50;;;;;;5088976;28;20034;-62
2021/04/08 12:54:54;;;;;;;8.63;2.90;;;18.80;85.10;;;;;;5095646;28;20028;-62
2021/04/08 12:57:19;;;;;;;4.47;2.60;;;18.90;86.60;;;;;;5090495;28;20020;-61
2021/04/08 12:59:45;;;;;;;5.53;2.92;;;19.00;85.80;;;;;;5075306;28;20104;-65